sensor_id;sensor_type;location;lat;lon;timestamp;temperature;humidity
69932;DHT22;57243;52.064;5.116;2023-05-18T00:00:59;17.40;50.00
69932;DHT22;57243;52.064;5.116;2023-05-18T00:03:28;17.40;50.00
69932;DHT22;57243;52.064;5.116;2023-05-18T00:05:54;17.40;50.20
69932;DHT22;57243;52.064;5.116;2023-05-18T00:08:22;17.40;49.90
69932;DHT22;57243;52.064;5.116;2023-05-18T00:10:47;17.40;49.80
69932;DHT22;57243;52.064;5.116;2023-05-18T00:13:13;17.40;50.00
69932;DHT22;57243;52.064;5.116;2023-05-18T00:15:38;17.40;49.80
69932;DHT22;57243;52.064;5.116;2023-05-18T00:18:04;17.30;50.10
69932;DHT22;57243;52.064;5.116;2023-05-18T00:20:29;17.30;50.10
69932;DHT22;57243;52.064;5.116;2023-05-18T00:22:55;17.40;50.10
69932;DHT22;57243;52.064;5.116;2023-05-18T00:25:21;17.30;50.10
69932;DHT22;57243;52.064;5.116;2023-05-18T00:27:47;17.30;49.60
69932;DHT22;57243;52.064;5.116;2023-05-18T00:30:14;17.30;49.60
69932;DHT22;57243;52.064;5.116;2023-05-18T00:32:40;17.30;49.80
69932;DHT22;57243;52.064;5.116;2023-05-18T00:35:05;17.30;49.60
69932;DHT22;57243;52.064;5.116;2023-05-18T00:37:31;17.30;50.00
69932;DHT22;57243;52.064;5.116;2023-05-18T00:39:56;17.30;49.80
69932;DHT22;57243;52.064;5.116;2023-05-18T00:42:22;17.30;49.50
69932;DHT22;57243;52.064;5.116;2023-05-18T00:44:47;17.30;49.80
69932;DHT22;57243;52.064;5.116;2023-05-18T00:47:13;17.20;49.70
69932;DHT22;57243;52.064;5.116;2023-05-18T00:49:38;17.20;49.70
69932;DHT22;57243;52.064;5.116;2023-05-18T00:52:04;17.20;49.90
69932;DHT22;57243;52.064;5.116;2023-05-18T00:54:30;17.20;49.90
69932;DHT22;57243;52.064;5.116;2023-05-18T00:56:57;17.20;50.00
69932;DHT22;57243;52.064;5.116;2023-05-18T00:59:27;17.20;49.80
69932;DHT22;57243;52.064;5.116;2023-05-18T01:01:52;17.20;50.00
69932;DHT22;57243;52.064;5.116;2023-05-18T01:04:18;17.20;50.00
69932;DHT22;57243;52.064;5.116;2023-05-18T01:06:46;17.20;50.00
69932;DHT22;57243;52.064;5.116;2023-05-18T01:09:13;17.20;50.00
69932;DHT22;57243;52.064;5.116;2023-05-18T01:11:43;17.30;50.20
69932;DHT22;57243;52.064;5.116;2023-05-18T01:14:14;17.20;50.30
69932;DHT22;57243;52.064;5.116;2023-05-18T01:16:42;17.30;50.50
69932;DHT22;57243;52.064;5.116;2023-05-18T01:19:19;17.30;50.40
69932;DHT22;57243;52.064;5.116;2023-05-18T01:22:12;17.30;50.60
69932;DHT22;57243;52.064;5.116;2023-05-18T01:24:37;17.30;50.50
69932;DHT22;57243;52.064;5.116;2023-05-18T01:27:07;17.30;50.40
69932;DHT22;57243;52.064;5.116;2023-05-18T01:29:32;17.30;50.40
69932;DHT22;57243;52.064;5.116;2023-05-18T01:31:58;17.30;50.50
69932;DHT22;57243;52.064;5.116;2023-05-18T01:34:24;17.30;50.30
69932;DHT22;57243;52.064;5.116;2023-05-18T01:36:49;17.30;50.30
69932;DHT22;57243;52.064;5.116;2023-05-18T01:39:15;17.30;50.00
69932;DHT22;57243;52.064;5.116;2023-05-18T01:41:45;17.30;49.90
69932;DHT22;57243;52.064;5.116;2023-05-18T01:44:16;17.20;50.20
69932;DHT22;57243;52.064;5.116;2023-05-18T01:49:16;17.20;50.20
69932;DHT22;57243;52.064;5.116;2023-05-18T01:51:45;17.20;50.30
69932;DHT22;57243;52.064;5.116;2023-05-18T01:54:11;17.20;50.20
69932;DHT22;57243;52.064;5.116;2023-05-18T01:56:39;17.20;50.40
69932;DHT22;57243;52.064;5.116;2023-05-18T01:59:05;17.20;50.20
69932;DHT22;57243;52.064;5.116;2023-05-18T02:01:30;17.20;50.40
69932;DHT22;57243;52.064;5.116;2023-05-18T02:03:56;17.20;50.10
69932;DHT22;57243;52.064;5.116;2023-05-18T02:06:22;17.20;50.10
69932;DHT22;57243;52.064;5.116;2023-05-18T02:08:47;17.20;50.30
69932;DHT22;57243;52.064;5.116;2023-05-18T02:11:13;17.20;50.30
69932;DHT22;57243;52.064;5.116;2023-05-18T02:13:38;17.20;50.50
69932;DHT22;57243;52.064;5.116;2023-05-18T02:16:04;17.20;50.50
69932;DHT22;57243;52.064;5.116;2023-05-18T02:18:29;17.20;50.50
69932;DHT22;57243;52.064;5.116;2023-05-18T02:20:58;17.30;50.50
69932;DHT22;57243;52.064;5.116;2023-05-18T02:23:24;17.30;50.40
69932;DHT22;57243;52.064;5.116;2023-05-18T02:25:50;17.30;50.00
69932;DHT22;57243;52.064;5.116;2023-05-18T02:28:15;17.20;50.10
69932;DHT22;57243;52.064;5.116;2023-05-18T02:30:41;17.20;50.40
69932;DHT22;57243;52.064;5.116;2023-05-18T02:33:07;17.20;50.20
69932;DHT22;57243;52.064;5.116;2023-05-18T02:35:34;17.20;49.80
69932;DHT22;57243;52.064;5.116;2023-05-18T02:37:59;17.20;50.20
69932;DHT22;57243;52.064;5.116;2023-05-18T02:40:25;17.20;50.20
69932;DHT22;57243;52.064;5.116;2023-05-18T02:42:50;17.20;50.20
69932;DHT22;57243;52.064;5.116;2023-05-18T02:45:16;17.20;50.30
69932;DHT22;57243;52.064;5.116;2023-05-18T02:47:41;17.20;50.20
69932;DHT22;57243;52.064;5.116;2023-05-18T02:50:08;17.20;50.10
69932;DHT22;57243;52.064;5.116;2023-05-18T02:52:34;17.20;50.30
69932;DHT22;57243;52.064;5.116;2023-05-18T02:54:59;17.20;50.30
69932;DHT22;57243;52.064;5.116;2023-05-18T02:57:25;17.20;50.50
69932;DHT22;57243;52.064;5.116;2023-05-18T02:59:50;17.20;50.20
69932;DHT22;57243;52.064;5.116;2023-05-18T03:02:16;17.20;50.10
69932;DHT22;57243;52.064;5.116;2023-05-18T03:04:42;17.10;50.40
69932;DHT22;57243;52.064;5.116;2023-05-18T03:07:08;17.10;49.90
69932;DHT22;57243;52.064;5.116;2023-05-18T03:09:35;17.10;50.10
69932;DHT22;57243;52.064;5.116;2023-05-18T03:12:00;17.10;50.10
69932;DHT22;57243;52.064;5.116;2023-05-18T03:14:26;17.10;50.10
69932;DHT22;57243;52.064;5.116;2023-05-18T03:16:51;17.10;50.20
69932;DHT22;57243;52.064;5.116;2023-05-18T03:19:18;17.10;50.30
69932;DHT22;57243;52.064;5.116;2023-05-18T03:21:44;17.10;50.40
69932;DHT22;57243;52.064;5.116;2023-05-18T03:24:09;17.10;50.40
69932;DHT22;57243;52.064;5.116;2023-05-18T03:26:39;17.20;50.40
69932;DHT22;57243;52.064;5.116;2023-05-18T03:29:06;17.10;50.40
69932;DHT22;57243;52.064;5.116;2023-05-18T03:31:31;17.10;50.40
69932;DHT22;57243;52.064;5.116;2023-05-18T03:33:57;17.10;50.50
69932;DHT22;57243;52.064;5.116;2023-05-18T03:36:22;17.20;50.50
69932;DHT22;57243;52.064;5.116;2023-05-18T03:38:50;17.20;50.60
69932;DHT22;57243;52.064;5.116;2023-05-18T03:41:15;17.20;50.70
69932;DHT22;57243;52.064;5.116;2023-05-18T03:43:41;17.20;50.50
69932;DHT22;57243;52.064;5.116;2023-05-18T03:46:06;17.20;50.10
69932;DHT22;57243;52.064;5.116;2023-05-18T03:48:32;17.20;50.20
69932;DHT22;57243;52.064;5.116;2023-05-18T03:50:57;17.10;50.10
69932;DHT22;57243;52.064;5.116;2023-05-18T03:53:23;17.10;50.30
69932;DHT22;57243;52.064;5.116;2023-05-18T03:55:48;17.10;50.10
69932;DHT22;57243;52.064;5.116;2023-05-18T03:58:14;17.10;50.20
69932;DHT22;57243;52.064;5.116;2023-05-18T04:00:40;17.10;50.00
69932;DHT22;57243;52.064;5.116;2023-05-18T04:03:07;17.10;50.40
69932;DHT22;57243;52.064;5.116;2023-05-18T04:05:37;17.10;50.30
69932;DHT22;57243;52.064;5.116;2023-05-18T04:08:03;17.10;50.30
69932;DHT22;57243;52.064;5.116;2023-05-18T04:10:29;17.10;50.30
69932;DHT22;57243;52.064;5.116;2023-05-18T04:12:54;17.10;50.30
69932;DHT22;57243;52.064;5.116;2023-05-18T04:15:20;17.10;50.40
69932;DHT22;57243;52.064;5.116;2023-05-18T04:17:47;17.10;50.40
69932;DHT22;57243;52.064;5.116;2023-05-18T04:20:13;17.10;50.20
69932;DHT22;57243;52.064;5.116;2023-05-18T04:22:40;17.10;50.20
69932;DHT22;57243;52.064;5.116;2023-05-18T04:25:07;17.10;50.10
69932;DHT22;57243;52.064;5.116;2023-05-18T04:27:34;17.10;50.40
69932;DHT22;57243;52.064;5.116;2023-05-18T04:29:59;17.10;50.40
69932;DHT22;57243;52.064;5.116;2023-05-18T04:32:24;17.10;50.40
69932;DHT22;57243;52.064;5.116;2023-05-18T04:34:52;17.10;50.10
69932;DHT22;57243;52.064;5.116;2023-05-18T04:37:19;17.10;50.30
69932;DHT22;57243;52.064;5.116;2023-05-18T04:39:44;17.10;50.40
69932;DHT22;57243;52.064;5.116;2023-05-18T04:42:10;17.10;50.10
69932;DHT22;57243;52.064;5.116;2023-05-18T04:44:38;17.10;50.10
69932;DHT22;57243;52.064;5.116;2023-05-18T04:47:04;17.10;50.20
69932;DHT22;57243;52.064;5.116;2023-05-18T04:49:32;17.10;50.20
69932;DHT22;57243;52.064;5.116;2023-05-18T04:51:58;17.10;50.30
69932;DHT22;57243;52.064;5.116;2023-05-18T04:54:24;17.10;50.50
69932;DHT22;57243;52.064;5.116;2023-05-18T04:56:50;17.10;50.30
69932;DHT22;57243;52.064;5.116;2023-05-18T04:59:16;17.10;50.00
69932;DHT22;57243;52.064;5.116;2023-05-18T05:01:41;17.10;50.50
69932;DHT22;57243;52.064;5.116;2023-05-18T05:04:07;17.10;50.40
69932;DHT22;57243;52.064;5.116;2023-05-18T05:06:33;17.20;50.40
69932;DHT22;57243;52.064;5.116;2023-05-18T05:08:58;17.20;50.60
69932;DHT22;57243;52.064;5.116;2023-05-18T05:11:24;17.20;50.30
69932;DHT22;57243;52.064;5.116;2023-05-18T05:13:49;17.20;49.80
69932;DHT22;57243;52.064;5.116;2023-05-18T05:16:15;17.20;50.10
69932;DHT22;57243;52.064;5.116;2023-05-18T05:18:40;17.20;50.00
69932;DHT22;57243;52.064;5.116;2023-05-18T05:21:07;17.20;49.70
69932;DHT22;57243;52.064;5.116;2023-05-18T05:23:32;17.20;49.80
69932;DHT22;57243;52.064;5.116;2023-05-18T05:25:58;17.10;49.80
69932;DHT22;57243;52.064;5.116;2023-05-18T05:28:23;17.20;49.70
69932;DHT22;57243;52.064;5.116;2023-05-18T05:30:49;17.10;49.70
69932;DHT22;57243;52.064;5.116;2023-05-18T05:33:14;17.10;49.70
69932;DHT22;57243;52.064;5.116;2023-05-18T05:35:40;17.10;49.80
69932;DHT22;57243;52.064;5.116;2023-05-18T05:38:05;17.10;49.80
69932;DHT22;57243;52.064;5.116;2023-05-18T05:40:31;17.20;49.40
69932;DHT22;57243;52.064;5.116;2023-05-18T05:42:56;17.20;48.90
69932;DHT22;57243;52.064;5.116;2023-05-18T05:45:22;17.10;49.30
69932;DHT22;57243;52.064;5.116;2023-05-18T05:47:48;17.00;49.10
69932;DHT22;57243;52.064;5.116;2023-05-18T05:50:13;17.00;49.30
69932;DHT22;57243;52.064;5.116;2023-05-18T05:52:39;17.10;49.80
69932;DHT22;57243;52.064;5.116;2023-05-18T05:55:04;17.10;49.80
69932;DHT22;57243;52.064;5.116;2023-05-18T05:57:30;17.20;49.50
69932;DHT22;57243;52.064;5.116;2023-05-18T05:59:55;17.20;49.60
69932;DHT22;57243;52.064;5.116;2023-05-18T06:02:21;17.20;49.50
69932;DHT22;57243;52.064;5.116;2023-05-18T06:04:46;17.20;49.60
69932;DHT22;57243;52.064;5.116;2023-05-18T06:07:12;17.20;49.00
69932;DHT22;57243;52.064;5.116;2023-05-18T06:09:37;17.20;49.40
69932;DHT22;57243;52.064;5.116;2023-05-18T06:12:03;17.20;49.30
69932;DHT22;57243;52.064;5.116;2023-05-18T06:14:29;17.20;49.30
69932;DHT22;57243;52.064;5.116;2023-05-18T06:16:54;17.20;49.00
69932;DHT22;57243;52.064;5.116;2023-05-18T06:19:19;17.20;49.00
69932;DHT22;57243;52.064;5.116;2023-05-18T06:21:45;17.10;48.60
69932;DHT22;57243;52.064;5.116;2023-05-18T06:24:10;17.10;48.50
69932;DHT22;57243;52.064;5.116;2023-05-18T06:26:36;17.10;48.70
69932;DHT22;57243;52.064;5.116;2023-05-18T06:29:01;17.10;49.20
69932;DHT22;57243;52.064;5.116;2023-05-18T06:31:27;17.10;49.50
69932;DHT22;57243;52.064;5.116;2023-05-18T06:33:53;17.20;49.10
69932;DHT22;57243;52.064;5.116;2023-05-18T06:36:18;17.20;48.50
69932;DHT22;57243;52.064;5.116;2023-05-18T06:38:44;17.20;48.60
69932;DHT22;57243;52.064;5.116;2023-05-18T06:41:09;17.20;48.60
69932;DHT22;57243;52.064;5.116;2023-05-18T06:43:35;17.20;48.70
69932;DHT22;57243;52.064;5.116;2023-05-18T06:46:00;17.20;48.70
69932;DHT22;57243;52.064;5.116;2023-05-18T06:48:26;17.20;48.80
69932;DHT22;57243;52.064;5.116;2023-05-18T06:50:52;17.30;48.40
69932;DHT22;57243;52.064;5.116;2023-05-18T06:53:18;17.30;48.70
69932;DHT22;57243;52.064;5.116;2023-05-18T06:55:43;17.30;48.20
69932;DHT22;57243;52.064;5.116;2023-05-18T06:58:09;17.30;47.80
69932;DHT22;57243;52.064;5.116;2023-05-18T07:00:34;17.20;47.80
69932;DHT22;57243;52.064;5.116;2023-05-18T07:03:00;17.20;48.40
69932;DHT22;57243;52.064;5.116;2023-05-18T07:05:26;17.30;48.00
69932;DHT22;57243;52.064;5.116;2023-05-18T07:07:51;17.30;47.80
69932;DHT22;57243;52.064;5.116;2023-05-18T07:10:17;17.20;47.50
69932;DHT22;57243;52.064;5.116;2023-05-18T07:12:42;17.20;47.50
69932;DHT22;57243;52.064;5.116;2023-05-18T07:15:08;17.20;47.60
69932;DHT22;57243;52.064;5.116;2023-05-18T07:17:36;17.20;47.60
69932;DHT22;57243;52.064;5.116;2023-05-18T07:20:02;17.20;47.90
69932;DHT22;57243;52.064;5.116;2023-05-18T07:22:30;17.20;47.70
69932;DHT22;57243;52.064;5.116;2023-05-18T07:24:55;17.20;47.70
69932;DHT22;57243;52.064;5.116;2023-05-18T07:27:22;17.30;47.80
69932;DHT22;57243;52.064;5.116;2023-05-18T07:29:48;17.30;47.80
69932;DHT22;57243;52.064;5.116;2023-05-18T07:32:13;17.30;47.60
69932;DHT22;57243;52.064;5.116;2023-05-18T07:34:39;17.30;47.40
69932;DHT22;57243;52.064;5.116;2023-05-18T07:37:06;17.30;47.50
69932;DHT22;57243;52.064;5.116;2023-05-18T07:39:32;17.30;47.80
69932;DHT22;57243;52.064;5.116;2023-05-18T07:41:57;17.30;47.80
69932;DHT22;57243;52.064;5.116;2023-05-18T07:44:23;17.30;47.70
69932;DHT22;57243;52.064;5.116;2023-05-18T07:46:49;17.30;48.00
69932;DHT22;57243;52.064;5.116;2023-05-18T07:49:14;17.40;47.40
69932;DHT22;57243;52.064;5.116;2023-05-18T07:51:40;17.40;47.70
69932;DHT22;57243;52.064;5.116;2023-05-18T07:54:06;17.40;47.40
69932;DHT22;57243;52.064;5.116;2023-05-18T07:56:32;17.30;47.30
69932;DHT22;57243;52.064;5.116;2023-05-18T07:58:57;17.30;47.40
69932;DHT22;57243;52.064;5.116;2023-05-18T08:01:23;17.30;47.40
69932;DHT22;57243;52.064;5.116;2023-05-18T08:03:52;17.30;47.40
69932;DHT22;57243;52.064;5.116;2023-05-18T08:06:18;17.30;47.50
69932;DHT22;57243;52.064;5.116;2023-05-18T08:08:43;17.30;47.60
69932;DHT22;57243;52.064;5.116;2023-05-18T08:11:09;17.30;47.30
69932;DHT22;57243;52.064;5.116;2023-05-18T08:13:34;17.30;47.30
69932;DHT22;57243;52.064;5.116;2023-05-18T08:16:00;17.40;47.60
69932;DHT22;57243;52.064;5.116;2023-05-18T08:18:25;17.40;47.40
69932;DHT22;57243;52.064;5.116;2023-05-18T08:20:52;17.40;47.50
69932;DHT22;57243;52.064;5.116;2023-05-18T08:23:18;17.40;47.20
69932;DHT22;57243;52.064;5.116;2023-05-18T08:25:44;17.40;47.20
69932;DHT22;57243;52.064;5.116;2023-05-18T08:28:09;17.30;47.00
69932;DHT22;57243;52.064;5.116;2023-05-18T08:30:35;17.30;47.50
69932;DHT22;57243;52.064;5.116;2023-05-18T08:33:00;17.30;47.50
69932;DHT22;57243;52.064;5.116;2023-05-18T08:35:27;17.40;47.60
69932;DHT22;57243;52.064;5.116;2023-05-18T08:37:52;17.40;47.20
69932;DHT22;57243;52.064;5.116;2023-05-18T08:40:18;17.40;47.30
69932;DHT22;57243;52.064;5.116;2023-05-18T08:42:50;17.40;47.40
69932;DHT22;57243;52.064;5.116;2023-05-18T08:45:21;17.40;47.20
69932;DHT22;57243;52.064;5.116;2023-05-18T08:47:48;17.40;47.20
69932;DHT22;57243;52.064;5.116;2023-05-18T08:50:14;17.40;47.20
69932;DHT22;57243;52.064;5.116;2023-05-18T08:52:45;17.40;47.00
69932;DHT22;57243;52.064;5.116;2023-05-18T08:55:11;17.40;47.00
69932;DHT22;57243;52.064;5.116;2023-05-18T08:57:37;17.40;47.10
69932;DHT22;57243;52.064;5.116;2023-05-18T09:00:03;17.40;47.00
69932;DHT22;57243;52.064;5.116;2023-05-18T09:02:30;17.40;47.00
69932;DHT22;57243;52.064;5.116;2023-05-18T09:04:56;17.40;47.10
69932;DHT22;57243;52.064;5.116;2023-05-18T09:07:24;17.40;47.20
69932;DHT22;57243;52.064;5.116;2023-05-18T09:09:51;17.40;47.40
69932;DHT22;57243;52.064;5.116;2023-05-18T09:12:18;17.50;47.40
69932;DHT22;57243;52.064;5.116;2023-05-18T09:14:46;17.50;47.00
69932;DHT22;57243;52.064;5.116;2023-05-18T09:17:12;17.50;47.40
69932;DHT22;57243;52.064;5.116;2023-05-18T09:19:38;17.60;47.50
69932;DHT22;57243;52.064;5.116;2023-05-18T09:22:03;17.60;47.20
69932;DHT22;57243;52.064;5.116;2023-05-18T09:24:29;17.60;46.60
69932;DHT22;57243;52.064;5.116;2023-05-18T09:26:55;17.50;46.50
69932;DHT22;57243;52.064;5.116;2023-05-18T09:29:21;17.50;46.90
69932;DHT22;57243;52.064;5.116;2023-05-18T09:31:48;17.50;47.00
69932;DHT22;57243;52.064;5.116;2023-05-18T09:34:14;17.50;46.90
69932;DHT22;57243;52.064;5.116;2023-05-18T09:36:39;17.50;46.80
69932;DHT22;57243;52.064;5.116;2023-05-18T09:39:07;17.60;46.40
69932;DHT22;57243;52.064;5.116;2023-05-18T09:41:35;17.50;46.70
69932;DHT22;57243;52.064;5.116;2023-05-18T09:44:01;17.50;46.70
69932;DHT22;57243;52.064;5.116;2023-05-18T09:46:34;17.60;46.90
69932;DHT22;57243;52.064;5.116;2023-05-18T09:48:59;17.60;46.60
69932;DHT22;57243;52.064;5.116;2023-05-18T09:51:25;17.60;46.80
69932;DHT22;57243;52.064;5.116;2023-05-18T09:53:54;17.60;46.60
69932;DHT22;57243;52.064;5.116;2023-05-18T09:56:21;17.60;46.80
69932;DHT22;57243;52.064;5.116;2023-05-18T09:58:46;17.60;46.90
69932;DHT22;57243;52.064;5.116;2023-05-18T10:01:12;17.70;46.90
69932;DHT22;57243;52.064;5.116;2023-05-18T10:03:38;17.70;46.60
69932;DHT22;57243;52.064;5.116;2023-05-18T10:06:07;17.60;46.40
69932;DHT22;57243;52.064;5.116;2023-05-18T10:08:33;17.60;46.80
69932;DHT22;57243;52.064;5.116;2023-05-18T10:10:59;17.60;46.00
69932;DHT22;57243;52.064;5.116;2023-05-18T10:13:26;17.60;46.50
69932;DHT22;57243;52.064;5.116;2023-05-18T10:15:53;17.60;46.80
69932;DHT22;57243;52.064;5.116;2023-05-18T10:18:20;17.70;46.90
69932;DHT22;57243;52.064;5.116;2023-05-18T10:20:46;17.70;46.50
69932;DHT22;57243;52.064;5.116;2023-05-18T10:23:12;17.70;46.60
69932;DHT22;57243;52.064;5.116;2023-05-18T10:25:38;17.70;46.20
69932;DHT22;57243;52.064;5.116;2023-05-18T10:28:05;17.70;46.10
69932;DHT22;57243;52.064;5.116;2023-05-18T10:30:31;17.70;46.50
69932;DHT22;57243;52.064;5.116;2023-05-18T10:32:58;17.70;46.20
69932;DHT22;57243;52.064;5.116;2023-05-18T10:35:24;17.70;46.30
69932;DHT22;57243;52.064;5.116;2023-05-18T10:37:52;17.60;45.80
69932;DHT22;57243;52.064;5.116;2023-05-18T10:40:19;17.60;46.70
69932;DHT22;57243;52.064;5.116;2023-05-18T10:42:45;17.70;46.50
69932;DHT22;57243;52.064;5.116;2023-05-18T10:45:11;17.70;46.70
69932;DHT22;57243;52.064;5.116;2023-05-18T10:47:36;17.70;46.30
69932;DHT22;57243;52.064;5.116;2023-05-18T10:50:07;17.70;45.90
69932;DHT22;57243;52.064;5.116;2023-05-18T10:52:33;17.70;45.90
69932;DHT22;57243;52.064;5.116;2023-05-18T10:55:00;17.70;46.30
69932;DHT22;57243;52.064;5.116;2023-05-18T10:57:32;17.70;46.70
69932;DHT22;57243;52.064;5.116;2023-05-18T10:59:59;17.70;46.60
69932;DHT22;57243;52.064;5.116;2023-05-18T11:02:25;17.80;46.60
69932;DHT22;57243;52.064;5.116;2023-05-18T11:04:51;17.80;46.40
69932;DHT22;57243;52.064;5.116;2023-05-18T11:07:17;17.80;46.00
69932;DHT22;57243;52.064;5.116;2023-05-18T11:09:45;17.70;46.00
69932;DHT22;57243;52.064;5.116;2023-05-18T11:12:12;17.70;46.30
69932;DHT22;57243;52.064;5.116;2023-05-18T11:14:48;17.80;46.40
69932;DHT22;57243;52.064;5.116;2023-05-18T11:17:21;17.80;46.40
69932;DHT22;57243;52.064;5.116;2023-05-18T11:22:44;17.80;45.90
69932;DHT22;57243;52.064;5.116;2023-05-18T11:27:57;17.70;46.00
69932;DHT22;57243;52.064;5.116;2023-05-18T11:30:27;17.70;46.10
69932;DHT22;57243;52.064;5.116;2023-05-18T11:32:54;17.70;46.70
69932;DHT22;57243;52.064;5.116;2023-05-18T11:35:32;17.80;46.90
69932;DHT22;57243;52.064;5.116;2023-05-18T11:38:06;17.80;46.40
69932;DHT22;57243;52.064;5.116;2023-05-18T11:40:47;17.80;46.70
69932;DHT22;57243;52.064;5.116;2023-05-18T11:43:17;17.80;46.00
69932;DHT22;57243;52.064;5.116;2023-05-18T11:45:50;17.80;46.40
69932;DHT22;57243;52.064;5.116;2023-05-18T11:48:16;17.80;46.20
69932;DHT22;57243;52.064;5.116;2023-05-18T11:50:44;17.80;45.80
69932;DHT22;57243;52.064;5.116;2023-05-18T11:53:13;17.70;45.90
69932;DHT22;57243;52.064;5.116;2023-05-18T11:55:39;17.80;46.10
69932;DHT22;57243;52.064;5.116;2023-05-18T11:58:05;17.80;46.40
69932;DHT22;57243;52.064;5.116;2023-05-18T12:00:31;17.80;46.30
69932;DHT22;57243;52.064;5.116;2023-05-18T12:02:57;17.80;46.20
69932;DHT22;57243;52.064;5.116;2023-05-18T12:05:25;17.80;46.90
69932;DHT22;57243;52.064;5.116;2023-05-18T12:07:54;17.80;46.10
69932;DHT22;57243;52.064;5.116;2023-05-18T12:10:20;17.80;46.00
69932;DHT22;57243;52.064;5.116;2023-05-18T12:12:52;17.80;46.50
69932;DHT22;57243;52.064;5.116;2023-05-18T12:15:20;17.80;46.80
69932;DHT22;57243;52.064;5.116;2023-05-18T12:17:46;17.80;45.50
69932;DHT22;57243;52.064;5.116;2023-05-18T12:20:19;17.80;46.20
69932;DHT22;57243;52.064;5.116;2023-05-18T12:22:45;17.80;46.20
69932;DHT22;57243;52.064;5.116;2023-05-18T12:25:14;17.80;46.30
69932;DHT22;57243;52.064;5.116;2023-05-18T12:27:43;17.90;46.50
69932;DHT22;57243;52.064;5.116;2023-05-18T12:30:09;17.90;46.30
69932;DHT22;57243;52.064;5.116;2023-05-18T12:32:36;17.90;45.40
69932;DHT22;57243;52.064;5.116;2023-05-18T12:35:02;17.80;45.50
69932;DHT22;57243;52.064;5.116;2023-05-18T12:37:29;17.80;45.60
69932;DHT22;57243;52.064;5.116;2023-05-18T12:39:54;17.80;46.70
69932;DHT22;57243;52.064;5.116;2023-05-18T12:42:20;17.80;45.90
69932;DHT22;57243;52.064;5.116;2023-05-18T12:44:45;17.80;46.00
69932;DHT22;57243;52.064;5.116;2023-05-18T12:47:12;17.80;46.50
69932;DHT22;57243;52.064;5.116;2023-05-18T12:49:38;17.90;46.60
69932;DHT22;57243;52.064;5.116;2023-05-18T12:52:07;17.90;46.50
69932;DHT22;57243;52.064;5.116;2023-05-18T12:54:33;17.90;46.90
69932;DHT22;57243;52.064;5.116;2023-05-18T12:57:03;17.90;45.90
69932;DHT22;57243;52.064;5.116;2023-05-18T12:59:30;17.90;46.80
69932;DHT22;57243;52.064;5.116;2023-05-18T13:01:55;17.90;46.20
69932;DHT22;57243;52.064;5.116;2023-05-18T13:04:22;17.90;46.30
69932;DHT22;57243;52.064;5.116;2023-05-18T13:06:48;17.90;46.50
69932;DHT22;57243;52.064;5.116;2023-05-18T13:09:14;17.90;46.40
69932;DHT22;57243;52.064;5.116;2023-05-18T13:11:44;17.90;45.40
69932;DHT22;57243;52.064;5.116;2023-05-18T13:14:10;17.90;45.90
69932;DHT22;57243;52.064;5.116;2023-05-18T13:16:37;17.80;46.40
69932;DHT22;57243;52.064;5.116;2023-05-18T13:19:03;17.90;46.70
69932;DHT22;57243;52.064;5.116;2023-05-18T13:21:29;17.90;46.60
69932;DHT22;57243;52.064;5.116;2023-05-18T13:23:55;17.90;46.20
69932;DHT22;57243;52.064;5.116;2023-05-18T13:26:21;18.00;46.40
69932;DHT22;57243;52.064;5.116;2023-05-18T13:28:48;18.00;46.50
69932;DHT22;57243;52.064;5.116;2023-05-18T13:31:13;18.00;46.20
69932;DHT22;57243;52.064;5.116;2023-05-18T13:33:39;18.00;46.50
69932;DHT22;57243;52.064;5.116;2023-05-18T13:36:05;18.00;46.40
69932;DHT22;57243;52.064;5.116;2023-05-18T13:38:30;17.90;46.10
69932;DHT22;57243;52.064;5.116;2023-05-18T13:41:00;18.00;46.70
69932;DHT22;57243;52.064;5.116;2023-05-18T13:43:25;18.00;45.80
69932;DHT22;57243;52.064;5.116;2023-05-18T13:45:50;18.00;47.00
69932;DHT22;57243;52.064;5.116;2023-05-18T13:48:16;18.00;45.30
69932;DHT22;57243;52.064;5.116;2023-05-18T13:50:42;17.90;46.10
69932;DHT22;57243;52.064;5.116;2023-05-18T13:53:07;17.90;45.70
69932;DHT22;57243;52.064;5.116;2023-05-18T13:55:33;17.80;45.50
69932;DHT22;57243;52.064;5.116;2023-05-18T13:57:58;17.70;44.50
69932;DHT22;57243;52.064;5.116;2023-05-18T14:00:24;17.60;45.70
69932;DHT22;57243;52.064;5.116;2023-05-18T14:02:50;17.70;45.30
69932;DHT22;57243;52.064;5.116;2023-05-18T14:05:17;17.70;44.70
69932;DHT22;57243;52.064;5.116;2023-05-18T14:07:42;17.80;44.60
69932;DHT22;57243;52.064;5.116;2023-05-18T14:10:09;17.70;45.00
69932;DHT22;57243;52.064;5.116;2023-05-18T14:12:34;17.80;44.80
69932;DHT22;57243;52.064;5.116;2023-05-18T14:15:00;17.80;44.40
69932;DHT22;57243;52.064;5.116;2023-05-18T14:17:26;17.70;44.00
69932;DHT22;57243;52.064;5.116;2023-05-18T14:19:54;17.70;43.90
69932;DHT22;57243;52.064;5.116;2023-05-18T14:22:20;17.70;44.20
69932;DHT22;57243;52.064;5.116;2023-05-18T14:24:46;17.70;44.20
69932;DHT22;57243;52.064;5.116;2023-05-18T14:27:12;17.80;43.40
69932;DHT22;57243;52.064;5.116;2023-05-18T14:29:37;17.70;43.30
69932;DHT22;57243;52.064;5.116;2023-05-18T14:32:03;17.70;44.00
69932;DHT22;57243;52.064;5.116;2023-05-18T14:34:28;17.70;44.10
69932;DHT22;57243;52.064;5.116;2023-05-18T14:36:54;17.80;43.10
69932;DHT22;57243;52.064;5.116;2023-05-18T14:39:19;17.80;42.80
69932;DHT22;57243;52.064;5.116;2023-05-18T14:41:45;17.70;43.30
69932;DHT22;57243;52.064;5.116;2023-05-18T14:44:10;17.70;43.30
69932;DHT22;57243;52.064;5.116;2023-05-18T14:46:38;17.80;43.30
69932;DHT22;57243;52.064;5.116;2023-05-18T14:49:03;17.50;41.90
69932;DHT22;57243;52.064;5.116;2023-05-18T14:51:29;17.40;43.50
69932;DHT22;57243;52.064;5.116;2023-05-18T14:53:54;17.60;46.80
69932;DHT22;57243;52.064;5.116;2023-05-18T14:56:20;17.70;46.60
69932;DHT22;57243;52.064;5.116;2023-05-18T14:58:46;17.80;46.40
69932;DHT22;57243;52.064;5.116;2023-05-18T15:01:11;17.90;46.30
69932;DHT22;57243;52.064;5.116;2023-05-18T15:03:36;17.90;46.30
69932;DHT22;57243;52.064;5.116;2023-05-18T15:06:02;17.90;46.00
69932;DHT22;57243;52.064;5.116;2023-05-18T15:08:28;18.00;46.10
69932;DHT22;57243;52.064;5.116;2023-05-18T15:10:53;17.90;46.50
69932;DHT22;57243;52.064;5.116;2023-05-18T15:13:19;18.00;46.10
69932;DHT22;57243;52.064;5.116;2023-05-18T15:15:44;18.00;46.10
69932;DHT22;57243;52.064;5.116;2023-05-18T15:18:10;18.00;46.10
69932;DHT22;57243;52.064;5.116;2023-05-18T15:20:36;18.00;45.60
69932;DHT22;57243;52.064;5.116;2023-05-18T15:23:03;18.00;46.00
69932;DHT22;57243;52.064;5.116;2023-05-18T15:25:29;18.00;45.60
69932;DHT22;57243;52.064;5.116;2023-05-18T15:27:54;18.00;45.90
69932;DHT22;57243;52.064;5.116;2023-05-18T15:30:20;18.00;45.60
69932;DHT22;57243;52.064;5.116;2023-05-18T15:32:45;18.00;45.70